sensor_id;sensor_type;location;lat;lon;timestamp;P1;P2;P0
53698;PMS7003;39591;53.952;27.612;2022-08-25T00:02:53;12;9.4;7.2
53698;PMS7003;39591;53.952;27.612;2022-08-25T00:08:14;12.8;9;7.2
53698;PMS7003;39591;53.952;27.612;2022-08-25T00:12:52;9.2;8;6.8
53698;PMS7003;39591;53.952;27.612;2022-08-25T00:18:02;10.8;10;8
53698;PMS7003;39591;53.952;27.612;2022-08-25T00:23:14;10.8;9.4;7.4
53698;PMS7003;39591;53.952;27.612;2022-08-25T00:28:28;12.4;9.6;7.4
53698;PMS7003;39591;53.952;27.612;2022-08-25T00:33:16;9;7.4;6.4
53698;PMS7003;39591;53.952;27.612;2022-08-25T00:38:02;10.6;8.6;6.8
53698;PMS7003;39591;53.952;27.612;2022-08-25T00:43:31;9.4;7.8;6.6
53698;PMS7003;39591;53.952;27.612;2022-08-25T00:48:30;9.6;9;7.6
53698;PMS7003;39591;53.952;27.612;2022-08-25T00:53:26;10.6;9;7
53698;PMS7003;39591;53.952;27.612;2022-08-25T00:58:09;9.8;8.6;7.2
53698;PMS7003;39591;53.952;27.612;2022-08-25T01:02:52;11;8.8;6.8
53698;PMS7003;39591;53.952;27.612;2022-08-25T01:07:53;10.2;8.8;6.8
53698;PMS7003;39591;53.952;27.612;2022-08-25T01:13:19;12;10;7.2
53698;PMS7003;39591;53.952;27.612;2022-08-25T01:18:14;11.6;9.6;7.8
53698;PMS7003;39591;53.952;27.612;2022-08-25T01:23:26;10.2;8.6;7
53698;PMS7003;39591;53.952;27.612;2022-08-25T01:28:19;9.6;7.8;6.2
53698;PMS7003;39591;53.952;27.612;2022-08-25T01:33:18;9.6;8.4;6.6
53698;PMS7003;39591;53.952;27.612;2022-08-25T01:38:14;10.6;9.4;7.6
53698;PMS7003;39591;53.952;27.612;2022-08-25T01:43:34;10;8.4;6.4
53698;PMS7003;39591;53.952;27.612;2022-08-25T01:48:03;8.8;8.4;6.8
53698;PMS7003;39591;53.952;27.612;2022-08-25T01:52:55;11;8.8;7.2
53698;PMS7003;39591;53.952;27.612;2022-08-25T01:58:12;10.6;9.4;7.6
53698;PMS7003;39591;53.952;27.612;2022-08-25T02:03:28;11;9.8;7.8
53698;PMS7003;39591;53.952;27.612;2022-08-25T02:08:30;10.8;8.2;6
53698;PMS7003;39591;53.952;27.612;2022-08-25T02:13:12;9;7.6;6
53698;PMS7003;39591;53.952;27.612;2022-08-25T02:18:21;10.6;8.6;7
53698;PMS7003;39591;53.952;27.612;2022-08-25T02:23:24;10.4;9.4;7.4
53698;PMS7003;39591;53.952;27.612;2022-08-25T02:28:02;10.4;8.8;7.2
53698;PMS7003;39591;53.952;27.612;2022-08-25T02:33:00;11;8.8;7.2
53698;PMS7003;39591;53.952;27.612;2022-08-25T02:37:52;10.8;8.6;7.4
53698;PMS7003;39591;53.952;27.612;2022-08-25T02:43:03;10.6;9.6;7.8
53698;PMS7003;39591;53.952;27.612;2022-08-25T02:48:02;10.2;8.6;7.2
53698;PMS7003;39591;53.952;27.612;2022-08-25T02:53:02;11.6;9.6;7.6
53698;PMS7003;39591;53.952;27.612;2022-08-25T02:58:32;9.4;8.6;7
53698;PMS7003;39591;53.952;27.612;2022-08-25T03:03:18;11;10;8
53698;PMS7003;39591;53.952;27.612;2022-08-25T03:08:12;11.2;10.2;8.4
53698;PMS7003;39591;53.952;27.612;2022-08-25T03:13:12;9.8;9.2;7.4
53698;PMS7003;39591;53.952;27.612;2022-08-25T03:18:20;10.4;8.4;7
53698;PMS7003;39591;53.952;27.612;2022-08-25T03:23:32;9.8;9;7.2
53698;PMS7003;39591;53.952;27.612;2022-08-25T03:27:52;11.2;9.4;7.6
53698;PMS7003;39591;53.952;27.612;2022-08-25T03:32:52;10.8;9.6;7.8
53698;PMS7003;39591;53.952;27.612;2022-08-25T03:37:54;9.6;8.8;6.8
53698;PMS7003;39591;53.952;27.612;2022-08-25T03:43:20;10.8;9.6;7.8
53698;PMS7003;39591;53.952;27.612;2022-08-25T03:48:15;18.4;17.2;12.4
53698;PMS7003;39591;53.952;27.612;2022-08-25T03:53:24;31.2;27.4;18.8
53698;PMS7003;39591;53.952;27.612;2022-08-25T03:58:20;16.2;14.6;11.2
53698;PMS7003;39591;53.952;27.612;2022-08-25T04:03:18;11;10.4;8
53698;PMS7003;39591;53.952;27.612;2022-08-25T04:08:20;11.6;9.6;7
53698;PMS7003;39591;53.952;27.612;2022-08-25T04:13:30;10;9.2;7.8
53698;PMS7003;39591;53.952;27.612;2022-08-25T04:17:52;11.4;9.8;8
53698;PMS7003;39591;53.952;27.612;2022-08-25T04:23:02;11.6;9.6;7.8
53698;PMS7003;39591;53.952;27.612;2022-08-25T04:28:02;10.6;10;8.2
53698;PMS7003;39591;53.952;27.612;2022-08-25T04:33:30;15.4;13.4;10.2
53698;PMS7003;39591;53.952;27.612;2022-08-25T04:38:32;24.2;20.6;14.4
53698;PMS7003;39591;53.952;27.612;2022-08-25T04:43:14;13.6;11.2;8.2
53698;PMS7003;39591;53.952;27.612;2022-08-25T04:48:32;12.6;11.2;9
53698;PMS7003;39591;53.952;27.612;2022-08-25T04:52:52;14.4;11.8;8.8
53698;PMS7003;39591;53.952;27.612;2022-08-25T04:58:11;12.6;11.6;9
53698;PMS7003;39591;53.952;27.612;2022-08-25T05:02:56;10.4;9.4;7
53698;PMS7003;39591;53.952;27.612;2022-08-25T05:07:52;12.4;10.6;8
53698;PMS7003;39591;53.952;27.612;2022-08-25T05:12:52;13;11;8.8
53698;PMS7003;39591;53.952;27.612;2022-08-25T05:18:02;23.8;19;13.6
53698;PMS7003;39591;53.952;27.612;2022-08-25T05:23:32;14.4;12;8.8
53698;PMS7003;39591;53.952;27.612;2022-08-25T05:28:14;11.4;10.2;8
53698;PMS7003;39591;53.952;27.612;2022-08-25T05:33:28;12.4;11;9
53698;PMS7003;39591;53.952;27.612;2022-08-25T05:38:22;11.2;10.2;7.8
53698;PMS7003;39591;53.952;27.612;2022-08-25T05:43:20;11.6;9.8;8
53698;PMS7003;39591;53.952;27.612;2022-08-25T05:48:30;19.4;15.6;12.2
53698;PMS7003;39591;53.952;27.612;2022-08-25T05:53:32;16.4;15.2;11.4
53698;PMS7003;39591;53.952;27.612;2022-08-25T05:58:23;12;10.6;8.4
53698;PMS7003;39591;53.952;27.612;2022-08-25T06:03:10;11.2;9.8;7.8
53698;PMS7003;39591;53.952;27.612;2022-08-25T06:07:52;10.8;9;7.6
53698;PMS7003;39591;53.952;27.612;2022-08-25T06:13:28;9.8;8;6.8
53698;PMS7003;39591;53.952;27.612;2022-08-25T06:18:20;9;8;6.2
53698;PMS7003;39591;53.952;27.612;2022-08-25T06:23:30;11.2;9.6;7.2
53698;PMS7003;39591;53.952;27.612;2022-08-25T06:28:22;9.4;8.2;6.8
53698;PMS7003;39591;53.952;27.612;2022-08-25T06:33:18;11.4;8.6;6.6
53698;PMS7003;39591;53.952;27.612;2022-08-25T06:38:10;9.2;7.8;6.4
53698;PMS7003;39591;53.952;27.612;2022-08-25T06:43:31;10;8.6;7.2
53698;PMS7003;39591;53.952;27.612;2022-08-25T06:48:32;9.2;7.8;6
53698;PMS7003;39591;53.952;27.612;2022-08-25T06:52:52;12.8;10;8
53698;PMS7003;39591;53.952;27.612;2022-08-25T06:58:02;14.8;12;9.8
53698;PMS7003;39591;53.952;27.612;2022-08-25T07:03:28;14.8;14;10.8
53698;PMS7003;39591;53.952;27.612;2022-08-25T07:08:22;16.6;14;11
53698;PMS7003;39591;53.952;27.612;2022-08-25T07:13:30;11.8;10;7.8
53698;PMS7003;39591;53.952;27.612;2022-08-25T07:18:20;10.6;9.4;7.2
53698;PMS7003;39591;53.952;27.612;2022-08-25T07:23:25;11;9.6;7.4
53698;PMS7003;39591;53.952;27.612;2022-08-25T07:28:32;10.8;9.4;7.2
53698;PMS7003;39591;53.952;27.612;2022-08-25T07:33:00;8.8;7.6;5.6
53698;PMS7003;39591;53.952;27.612;2022-08-25T07:38:10;7.6;6.6;5.6
53698;PMS7003;39591;53.952;27.612;2022-08-25T07:43:24;8;7.2;6.2
53698;PMS7003;39591;53.952;27.612;2022-08-25T07:48:05;8;6.6;5.6
53698;PMS7003;39591;53.952;27.612;2022-08-25T07:53:22;7.6;5.8;4.6
53698;PMS7003;39591;53.952;27.612;2022-08-25T07:58:03;9.2;7.6;6
53698;PMS7003;39591;53.952;27.612;2022-08-25T08:03:33;9;7;5.6
53698;PMS7003;39591;53.952;27.612;2022-08-25T08:08:31;8.4;6.2;4.8
53698;PMS7003;39591;53.952;27.612;2022-08-25T08:13:08;6.4;6;4.8
53698;PMS7003;39591;53.952;27.612;2022-08-25T08:18:32;6.8;5.6;4.8
53698;PMS7003;39591;53.952;27.612;2022-08-25T08:23:30;7.2;6.6;5.6
53698;PMS7003;39591;53.952;27.612;2022-08-25T08:28:35;8;6.6;5.4
53698;PMS7003;39591;53.952;27.612;2022-08-25T08:32:53;7.8;6.4;5.8
53698;PMS7003;39591;53.952;27.612;2022-08-25T08:37:52;7.8;6.6;5.4
53698;PMS7003;39591;53.952;27.612;2022-08-25T08:43:32;8.2;6.8;5.6
53698;PMS7003;39591;53.952;27.612;2022-08-25T08:48:32;6.2;5;3.8
53698;PMS7003;39591;53.952;27.612;2022-08-25T08:53:07;7.4;7;5
53698;PMS7003;39591;53.952;27.612;2022-08-25T08:58:25;7.6;6.8;5.4
53698;PMS7003;39591;53.952;27.612;2022-08-25T09:03:25;7.8;6.2;5
53698;PMS7003;39591;53.952;27.612;2022-08-25T09:08:10;7;5.4;4.8
53698;PMS7003;39591;53.952;27.612;2022-08-25T09:13:35;6.4;6.2;5
53698;PMS7003;39591;53.952;27.612;2022-08-25T09:19:08;7;6.2;4.8
53698;PMS7003;39591;53.952;27.612;2022-08-25T09:24:17;6.6;5.6;4.6
53698;PMS7003;39591;53.952;27.612;2022-08-25T09:33:27;6.8;5.8;4.8
53698;PMS7003;39591;53.952;27.612;2022-08-25T09:38:35;6.6;5.4;4.8
53698;PMS7003;39591;53.952;27.612;2022-08-25T09:43:37;7.2;5.6;5
53698;PMS7003;39591;53.952;27.612;2022-08-25T09:48:05;6.4;4.8;3.6
53698;PMS7003;39591;53.952;27.612;2022-08-25T09:53:28;5.2;4.6;3.8
53698;PMS7003;39591;53.952;27.612;2022-08-25T09:58:24;6.6;5.6;5
53698;PMS7003;39591;53.952;27.612;2022-08-25T10:03:18;6;5;3.8
53698;PMS7003;39591;53.952;27.612;2022-08-25T10:07:55;6.2;5;4.2
53698;PMS7003;39591;53.952;27.612;2022-08-25T10:12:53;6.4;5.4;4.2
53698;PMS7003;39591;53.952;27.612;2022-08-25T10:18:15;5;4;3.6
53698;PMS7003;39591;53.952;27.612;2022-08-25T10:23:08;6.3;5.5;3.8
53698;PMS7003;39591;53.952;27.612;2022-08-25T10:28:19;5.6;4.4;4.2
53698;PMS7003;39591;53.952;27.612;2022-08-25T10:33:41;5.8;4.8;3.8
53698;PMS7003;39591;53.952;27.612;2022-08-25T10:38:51;5.2;3.8;3.2
53698;PMS7003;39591;53.952;27.612;2022-08-25T10:43:04;20.8;17.4;12.2
53698;PMS7003;39591;53.952;27.612;2022-08-25T10:48:38;8.2;6.8;5.4
53698;PMS7003;39591;53.952;27.612;2022-08-25T10:54:28;6;5;3.8
53698;PMS7003;39591;53.952;27.612;2022-08-25T11:02:56;4.8;3.6;3.4
53698;PMS7003;39591;53.952;27.612;2022-08-25T11:08:30;5.4;4;3.4
53698;PMS7003;39591;53.952;27.612;2022-08-25T11:13:04;4.8;3.8;3
53698;PMS7003;39591;53.952;27.612;2022-08-25T11:18:12;3.4;3.2;2.6
53698;PMS7003;39591;53.952;27.612;2022-08-25T11:22:56;8;5.8;4.6
53698;PMS7003;39591;53.952;27.612;2022-08-25T11:28:31;5.4;4.6;3.4
53698;PMS7003;39591;53.952;27.612;2022-08-25T11:33:03;5.2;3.6;2.8
53698;PMS7003;39591;53.952;27.612;2022-08-25T11:43:27;3.2;3;2.6
53698;PMS7003;39591;53.952;27.612;2022-08-25T11:48:33;3.8;3.6;3.2
53698;PMS7003;39591;53.952;27.612;2022-08-25T11:53:41;4.6;3.2;2.6
53698;PMS7003;39591;53.952;27.612;2022-08-25T11:58:50;4.4;3.6;3
53698;PMS7003;39591;53.952;27.612;2022-08-25T12:02:56;4.6;3.4;2.8
53698;PMS7003;39591;53.952;27.612;2022-08-25T12:08:46;4.8;3.6;3
53698;PMS7003;39591;53.952;27.612;2022-08-25T12:13:46;4;3.4;2.8
53698;PMS7003;39591;53.952;27.612;2022-08-25T12:18:12;4.2;3.2;2.6
53698;PMS7003;39591;53.952;27.612;2022-08-25T12:23:30;4.8;4;3.4
53698;PMS7003;39591;53.952;27.612;2022-08-25T12:28:30;4.8;4.6;3.8
53698;PMS7003;39591;53.952;27.612;2022-08-25T12:33:18;3.6;3.2;2.8
53698;PMS7003;39591;53.952;27.612;2022-08-25T12:38:13;4.4;3.6;2.8
53698;PMS7003;39591;53.952;27.612;2022-08-25T12:43:25;3.6;3;2.6
53698;PMS7003;39591;53.952;27.612;2022-08-25T12:47:53;6.6;5;4.2
53698;PMS7003;39591;53.952;27.612;2022-08-25T12:54:11;3.2;3;2.2
53698;PMS7003;39591;53.952;27.612;2022-08-25T12:58:21;3.8;3;3
53698;PMS7003;39591;53.952;27.612;2022-08-25T13:03:43;5.4;3;2.6
53698;PMS7003;39591;53.952;27.612;2022-08-25T13:08:45;3.6;3.4;3
53698;PMS7003;39591;53.952;27.612;2022-08-25T13:14:17;3.4;3.2;2.8
53698;PMS7003;39591;53.952;27.612;2022-08-25T13:18:14;2.8;2.8;2.6
53698;PMS7003;39591;53.952;27.612;2022-08-25T13:23:21;4;3.6;2.8
53698;PMS7003;39591;53.952;27.612;2022-08-25T13:28:35;3.2;2.6;2.2
53698;PMS7003;39591;53.952;27.612;2022-08-25T13:33:17;4.2;3.6;2.8
53698;PMS7003;39591;53.952;27.612;2022-08-25T13:37:53;3.4;3.2;3
53698;PMS7003;39591;53.952;27.612;2022-08-25T13:43:24;4.6;3.8;3.2
53698;PMS7003;39591;53.952;27.612;2022-08-25T13:48:43;3.8;2.8;2.6
53698;PMS7003;39591;53.952;27.612;2022-08-25T13:53:04;2.8;2.6;2.2
53698;PMS7003;39591;53.952;27.612;2022-08-25T13:58:24;3.8;3;2.6
53698;PMS7003;39591;53.952;27.612;2022-08-25T14:03:48;4;3;2.6
53698;PMS7003;39591;53.952;27.612;2022-08-25T14:08:36;4.6;3;2.8
53698;PMS7003;39591;53.952;27.612;2022-08-25T14:13:32;4.2;2.8;2
53698;PMS7003;39591;53.952;27.612;2022-08-25T14:18:30;2.6;2.2;2
53698;PMS7003;39591;53.952;27.612;2022-08-25T14:23:21;2.8;2.2;1.8
53698;PMS7003;39591;53.952;27.612;2022-08-25T14:28:04;3.8;3.6;3.2
53698;PMS7003;39591;53.952;27.612;2022-08-25T14:33:01;4.4;3.8;3.4
53698;PMS7003;39591;53.952;27.612;2022-08-25T14:38:31;3.6;2.4;2.2
53698;PMS7003;39591;53.952;27.612;2022-08-25T14:43:28;3.2;3;2.6
53698;PMS7003;39591;53.952;27.612;2022-08-25T14:48:27;3;2.4;2
53698;PMS7003;39591;53.952;27.612;2022-08-25T14:53:31;3.4;2.6;2.2
53698;PMS7003;39591;53.952;27.612;2022-08-25T14:58:23;3;2.6;2.4
53698;PMS7003;39591;53.952;27.612;2022-08-25T15:03:22;2.8;2.6;2.2
53698;PMS7003;39591;53.952;27.612;2022-08-25T15:07:57;2;1.6;1.4
53698;PMS7003;39591;53.952;27.612;2022-08-25T15:13:13;4;3.2;2.6
53698;PMS7003;39591;53.952;27.612;2022-08-25T15:18:13;3.4;2.4;1.8
53698;PMS7003;39591;53.952;27.612;2022-08-25T15:23:14;3.4;2.6;2.4
53698;PMS7003;39591;53.952;27.612;2022-08-25T15:28:21;4.6;3.6;3.2
53698;PMS7003;39591;53.952;27.612;2022-08-25T15:33:30;3;2.6;1.8
53698;PMS7003;39591;53.952;27.612;2022-08-25T15:38:19;2.4;2.4;1.8
53698;PMS7003;39591;53.952;27.612;2022-08-25T15:43:13;2.6;2;1.8
53698;PMS7003;39591;53.952;27.612;2022-08-25T15:48:14;3.4;2.8;2.4
53698;PMS7003;39591;53.952;27.612;2022-08-25T15:53:19;2;1.6;1.2
53698;PMS7003;39591;53.952;27.612;2022-08-25T15:58:33;2.2;1.8;1.6
53698;PMS7003;39591;53.952;27.612;2022-08-25T16:03:03;2.2;1.8;1.2
53698;PMS7003;39591;53.952;27.612;2022-08-25T16:08:05;1.8;1.4;1.2
53698;PMS7003;39591;53.952;27.612;2022-08-25T16:13:13;1.6;1;0.8
53698;PMS7003;39591;53.952;27.612;2022-08-25T16:18:21;3.2;2.6;2.4
53698;PMS7003;39591;53.952;27.612;2022-08-25T16:23:19;2;1.8;1.6
53698;PMS7003;39591;53.952;27.612;2022-08-25T16:28:25;1.6;1;1
53698;PMS7003;39591;53.952;27.612;2022-08-25T16:33:17;1.8;1.4;1.2
53698;PMS7003;39591;53.952;27.612;2022-08-25T16:38:19;2.2;1.4;1.4
53698;PMS7003;39591;53.952;27.612;2022-08-25T16:43:23;2.8;2.2;1.6
53698;PMS7003;39591;53.952;27.612;2022-08-25T16:48:33;2.6;1.8;1.2
53698;PMS7003;39591;53.952;27.612;2022-08-25T16:53:05;2.8;2;1.4
53698;PMS7003;39591;53.952;27.612;2022-08-25T16:58:03;3.2;2.6;2
53698;PMS7003;39591;53.952;27.612;2022-08-25T17:03:23;4.6;4.2;3.8
53698;PMS7003;39591;53.952;27.612;2022-08-25T17:08:33;5.8;5;4
53698;PMS7003;39591;53.952;27.612;2022-08-25T17:13:33;5.2;5;4.2
53698;PMS7003;39591;53.952;27.612;2022-08-25T17:18:11;5.2;4.8;4.2
53698;PMS7003;39591;53.952;27.612;2022-08-25T17:23:31;6.8;5.2;4.2
53698;PMS7003;39591;53.952;27.612;2022-08-25T17:28:23;5;4.8;3.8
53698;PMS7003;39591;53.952;27.612;2022-08-25T17:33:11;7;6.4;5.6
53698;PMS7003;39591;53.952;27.612;2022-08-25T17:38:03;6.6;5.8;4.2
53698;PMS7003;39591;53.952;27.612;2022-08-25T17:42:53;7.4;5.8;4
53698;PMS7003;39591;53.952;27.612;2022-08-25T17:48:01;6.4;5.6;4.8
53698;PMS7003;39591;53.952;27.612;2022-08-25T17:52:53;7.6;6.8;5.2
53698;PMS7003;39591;53.952;27.612;2022-08-25T17:58:17;6.2;5.6;4.8
53698;PMS7003;39591;53.952;27.612;2022-08-25T18:03:25;6.4;6;4.6
53698;PMS7003;39591;53.952;27.612;2022-08-25T18:08:19;8.6;7.2;5.4
53698;PMS7003;39591;53.952;27.612;2022-08-25T18:13:13;9.8;8.4;7
53698;PMS7003;39591;53.952;27.612;2022-08-25T18:18:25;8;7;5.4
53698;PMS7003;39591;53.952;27.612;2022-08-25T18:23:19;11.2;10.4;8
53698;PMS7003;39591;53.952;27.612;2022-08-25T18:28:33;10.8;9.2;7.6
53698;PMS7003;39591;53.952;27.612;2022-08-25T18:33:33;10.6;9.4;7.6
53698;PMS7003;39591;53.952;27.612;2022-08-25T18:37:53;10.2;8;6.8
53698;PMS7003;39591;53.952;27.612;2022-08-25T18:42:54;11.6;10.2;8.2
53698;PMS7003;39591;53.952;27.612;2022-08-25T18:48:33;9.6;8.4;6.8
53698;PMS7003;39591;53.952;27.612;2022-08-25T18:53:26;11.4;9.4;8
53698;PMS7003;39591;53.952;27.612;2022-08-25T18:58:11;11.6;9.8;7.4
53698;PMS7003;39591;53.952;27.612;2022-08-25T19:03:23;12.2;10.2;7.8
53698;PMS7003;39591;53.952;27.612;2022-08-25T19:08:17;11.8;10.2;8.4
53698;PMS7003;39591;53.952;27.612;2022-08-25T19:13:09;11;9.6;8
53698;PMS7003;39591;53.952;27.612;2022-08-25T19:18:21;11.4;9.6;7.4
53698;PMS7003;39591;53.952;27.612;2022-08-25T19:23:33;10;9;7.2
53698;PMS7003;39591;53.952;27.612;2022-08-25T19:28:11;12.4;11.2;8.2
53698;PMS7003;39591;53.952;27.612;2022-08-25T19:33:05;12.6;10.4;8.6
53698;PMS7003;39591;53.952;27.612;2022-08-25T19:38:35;14.8;13;8.6
53698;PMS7003;39591;53.952;27.612;2022-08-25T19:43:23;14.4;12.6;9.6
53698;PMS7003;39591;53.952;27.612;2022-08-25T19:48:35;13.8;12.8;10.8
53698;PMS7003;39591;53.952;27.612;2022-08-25T19:53:11;15.2;13.6;11
53698;PMS7003;39591;53.952;27.612;2022-08-25T19:58:23;15;13;10.2
53698;PMS7003;39591;53.952;27.612;2022-08-25T20:03:13;12.4;11.2;9.6
53698;PMS7003;39591;53.952;27.612;2022-08-25T20:08:13;14.2;12;9.6
53698;PMS7003;39591;53.952;27.612;2022-08-25T20:13:03;10.2;9.6;7.8
53698;PMS7003;39591;53.952;27.612;2022-08-25T20:17:53;12.8;11;8.8
53698;PMS7003;39591;53.952;27.612;2022-08-25T20:22:53;10.6;9.6;8
53698;PMS7003;39591;53.952;27.612;2022-08-25T20:28:17;13;11;9
53698;PMS7003;39591;53.952;27.612;2022-08-25T20:33:15;11;9.8;7.4
53698;PMS7003;39591;53.952;27.612;2022-08-25T20:38:35;12;11;8.8
53698;PMS7003;39591;53.952;27.612;2022-08-25T20:43:33;12.4;10.8;8.8
53698;PMS7003;39591;53.952;27.612;2022-08-25T20:48:11;13;11;8.6
53698;PMS7003;39591;53.952;27.612;2022-08-25T20:53:35;12;9.8;8.4
53698;PMS7003;39591;53.952;27.612;2022-08-25T20:58:23;12.6;10;8.4
53698;PMS7003;39591;53.952;27.612;2022-08-25T21:03:33;12;11.6;9.6
53698;PMS7003;39591;53.952;27.612;2022-08-25T21:08:05;13.2;12.2;9.6
53698;PMS7003;39591;53.952;27.612;2022-08-25T21:12:53;12;10.4;8
53698;PMS7003;39591;53.952;27.612;2022-08-25T21:18:33;14.4;12.6;9.6
53698;PMS7003;39591;53.952;27.612;2022-08-25T21:23:23;15.8;13.4;11
53698;PMS7003;39591;53.952;27.612;2022-08-25T21:28:17;13.4;11.8;9.6
53698;PMS7003;39591;53.952;27.612;2022-08-25T21:33:21;13.8;12.6;9.8
53698;PMS7003;39591;53.952;27.612;2022-08-25T21:38:19;11.8;11.2;8.6
53698;PMS7003;39591;53.952;27.612;2022-08-25T21:43:13;14.6;12.6;9.8
53698;PMS7003;39591;53.952;27.612;2022-08-25T21:48:25;13.4;12.4;9.4
53698;PMS7003;39591;53.952;27.612;2022-08-25T21:53:27;13;11;8.4
53698;PMS7003;39591;53.952;27.612;2022-08-25T21:57:53;11;9.8;7.8
53698;PMS7003;39591;53.952;27.612;2022-08-25T22:02:53;11.6;9.8;8
53698;PMS7003;39591;53.952;27.612;2022-08-25T22:08:33;12.6;10.8;8.2
53698;PMS7003;39591;53.952;27.612;2022-08-25T22:13:13;13.6;11.8;9.4
53698;PMS7003;39591;53.952;27.612;2022-08-25T22:18:33;9.8;9.4;7.8
53698;PMS7003;39591;53.952;27.612;2022-08-25T22:22:53;12.6;11.4;9.2
53698;PMS7003;39591;53.952;27.612;2022-08-25T22:28:13;11.4;10.6;8.4
53698;PMS7003;39591;53.952;27.612;2022-08-25T22:33:29;11.8;11.4;9.2
53698;PMS7003;39591;53.952;27.612;2022-08-25T22:38:11;12.6;11.6;9.4
53698;PMS7003;39591;53.952;27.612;2022-08-25T22:43:11;13.2;12;9.8
53698;PMS7003;39591;53.952;27.612;2022-08-25T22:48:13;15.8;14.4;11.4
53698;PMS7003;39591;53.952;27.612;2022-08-25T22:53:01;13.2;12;9.8
53698;PMS7003;39591;53.952;27.612;2022-08-25T22:57:53;14.2;12.4;9.8
53698;PMS7003;39591;53.952;27.612;2022-08-25T23:02:53;20;17.8;13.4
53698;PMS7003;39591;53.952;27.612;2022-08-25T23:08:29;23.2;20.4;14
53698;PMS7003;39591;53.952;27.612;2022-08-25T23:13:17;20.6;18.8;14.4
53698;PMS7003;39591;53.952;27.612;2022-08-25T23:18:13;18.2;17;13.2
53698;PMS7003;39591;53.952;27.612;2022-08-25T23:23:13;20;17.6;13.4
53698;PMS7003;39591;53.952;27.612;2022-08-25T23:28:17;17.2;15.4;12.6
53698;PMS7003;39591;53.952;27.612;2022-08-25T23:33:29;18.8;16.8;12.8
53698;PMS7003;39591;53.952;27.612;2022-08-25T23:38:05;19.6;18.2;13.6
53698;PMS7003;39591;53.952;27.612;2022-08-25T23:43:03;19;17;12.6
53698;PMS7003;39591;53.952;27.612;2022-08-25T23:48:03;18.8;15.4;12
53698;PMS7003;39591;53.952;27.612;2022-08-25T23:53:23;17.8;15.6;12.2
53698;PMS7003;39591;53.952;27.612;2022-08-25T23:58:27;15.6;14.4;11.2
